Time;durP1;ratioP1;P1;durP2;ratioP2;P2;SDS_P1;SDS_P2;PMS_P1;PMS_P2;Temp;Humidity;BMP_temperature;BMP_pressure;BME280_temperature;BME280_humidity;BME280_pressure;Samples;Min_cycle;Max_cycle;Signal;HPM_P1;HPM_P2
2022/03/22 00:00:38;;;;;;;185.65;84.07;;;;;;;2.87;44.10;96404.16;4925107;23;20071;-77
2022/03/22 00:03:04;;;;;;;112.20;52.50;;;;;;;2.94;43.00;96404.41;4902284;29;20056;-78
2022/03/22 00:05:31;;;;;;;111.40;47.42;;;;;;;2.99;42.72;96412.47;4895625;29;20036;-77
2022/03/22 00:07:56;;;;;;;99.05;45.78;;;;;;;2.98;42.75;96405.72;4885644;29;20047;-77
2022/03/22 00:10:22;;;;;;;115.15;51.75;;;;;;;3.08;43.21;96403.88;4875972;29;20714;-77
2022/03/22 00:12:49;;;;;;;147.60;63.85;;;;;;;3.15;44.20;96402.34;4895439;29;20129;-77
2022/03/22 00:15:15;;;;;;;134.52;62.03;;;;;;;3.23;44.02;96399.84;4898392;29;20723;-77
2022/03/22 00:17:40;;;;;;;156.63;65.70;;;;;;;3.24;43.69;96400.66;4965711;23;20085;-77
2022/03/22 00:20:10;;;;;;;138.48;57.00;;;;;;;3.26;42.75;96391.06;4926189;29;20035;-78
2022/03/22 00:22:38;;;;;;;139.93;56.80;;;;;;;3.35;42.96;96392.72;4891097;29;20162;-77
2022/03/22 00:25:05;;;;;;;169.95;70.05;;;;;;;3.27;43.65;96384.97;4922361;29;20036;-78
2022/03/22 00:27:50;;;;;;;184.20;79.45;;;;;;;3.33;44.35;96383.56;4908636;29;20032;-78
2022/03/22 00:30:30;;;;;;;109.07;46.90;;;;;;;3.31;43.26;96381.13;4924806;29;20047;-76
2022/03/22 00:32:57;;;;;;;77.88;36.92;;;;;;;3.39;42.40;96377.81;4923000;29;20102;-77
2022/03/22 00:35:23;;;;;;;85.05;36.45;;;;;;;3.34;41.98;96377.44;4923522;29;20480;-77
2022/03/22 00:37:50;;;;;;;69.57;32.78;;;;;;;3.43;41.36;96387.66;4947380;29;20044;-78
2022/03/22 00:40:19;;;;;;;58.15;30.60;;;;;;;3.43;41.52;96385.09;4932182;29;20431;-77
2022/03/22 00:42:46;;;;;;;57.50;28.15;;;;;;;3.49;40.33;96378.53;4909642;29;20039;-78
2022/03/22 00:45:15;;;;;;;52.15;26.65;;;;;;;3.47;40.55;96377.88;4933042;23;20050;-77
2022/03/22 00:47:48;;;;;;;52.78;24.88;;;;;;;3.49;40.69;96379.34;4895438;29;20056;-77
2022/03/22 00:50:15;;;;;;;40.15;20.95;;;;;;;3.43;39.20;96374.00;4896059;29;20048;-78
2022/03/22 00:52:40;;;;;;;49.38;24.55;;;;;;;3.46;39.70;96384.78;4895647;29;20158;-78
2022/03/22 00:55:07;;;;;;;51.53;26.58;;;;;;;3.49;39.91;96381.91;4897979;29;20110;-78
2022/03/22 00:57:33;;;;;;;55.65;26.80;;;;;;;3.51;40.01;96377.44;4896880;29;20047;-78
2022/03/22 01:00:02;;;;;;;60.15;28.92;;;;;;;3.51;40.40;96377.44;4895905;29;20047;-77
2022/03/22 01:02:28;;;;;;;64.43;33.05;;;;;;;3.51;40.32;96382.56;4896485;29;20037;-77
2022/03/22 01:05:07;;;;;;;62.08;28.05;;;;;;;3.54;40.67;96377.13;4895794;29;20549;-78
2022/03/22 01:07:33;;;;;;;95.90;43.58;;;;;;;3.61;41.43;96373.00;4864965;29;20037;-76
2022/03/22 01:10:05;;;;;;;99.63;46.92;;;;;;;3.61;41.54;96373.00;4895304;29;20041;-76
2022/03/22 01:12:31;;;;;;;112.00;54.70;;;;;;;3.51;43.07;96369.72;4896189;29;20120;-76
2022/03/22 01:14:57;;;;;;;123.45;54.08;;;;;;;3.47;43.68;96376.13;4908083;23;20618;-76
2022/03/22 01:17:22;;;;;;;93.20;44.67;;;;;;;3.37;42.58;96359.16;4915561;29;20044;-76
2022/03/22 01:19:48;;;;;;;89.53;40.13;;;;;;;3.39;41.83;96370.91;4905586;29;20485;-76
2022/03/22 01:22:15;;;;;;;98.45;45.90;;;;;;;3.49;41.75;96363.91;4894180;29;20056;-76
2022/03/22 01:24:42;;;;;;;95.78;43.78;;;;;;;3.47;40.94;96360.69;4896383;29;20037;-75
2022/03/22 01:27:07;;;;;;;116.32;50.38;;;;;;;3.43;43.55;96351.66;4896710;29;20107;-76
2022/03/22 01:29:33;;;;;;;109.05;51.70;;;;;;;3.41;42.97;96363.84;4894672;29;20036;-76
2022/03/22 01:31:59;;;;;;;114.60;49.55;;;;;;;3.33;43.61;96358.66;4879607;29;20044;-76
2022/03/22 01:34:25;;;;;;;122.70;51.30;;;;;;;3.32;43.82;96357.03;4895194;29;20075;-76
2022/03/22 01:36:50;;;;;;;99.65;43.15;;;;;;;3.35;42.58;96361.88;4895574;29;20164;-76
2022/03/22 01:39:16;;;;;;;127.35;55.35;;;;;;;3.35;43.74;96351.59;4879755;29;20405;-77
2022/03/22 01:41:41;;;;;;;111.03;46.72;;;;;;;3.43;43.41;96351.66;4897368;29;20044;-76
2022/03/22 01:44:07;;;;;;;110.13;48.33;;;;;;;3.46;42.66;96353.94;4885443;29;20044;-76
2022/03/22 01:46:33;;;;;;;59.22;27.77;;;;;;;3.25;41.62;96338.84;4895086;29;20040;-76
2022/03/22 01:48:58;;;;;;;65.53;31.63;;;;;;;3.30;41.83;96343.53;4863386;29;20044;-76
2022/03/22 01:51:24;;;;;;;76.63;34.45;;;;;;;3.32;42.04;96351.91;4894877;29;20517;-76
2022/03/22 01:53:49;;;;;;;63.10;30.80;;;;;;;3.36;41.30;96342.13;4892601;23;20040;-76
2022/03/22 01:56:15;;;;;;;77.47;35.92;;;;;;;3.38;41.71;96345.34;4908892;29;20054;-76
2022/03/22 01:58:41;;;;;;;80.47;38.25;;;;;;;3.40;42.61;96344.22;4907361;29;20038;-76
2022/03/22 02:06:36;;;;;;;91.80;41.10;;;;;;;3.47;43.39;96347.03;4890196;29;20096;-76
2022/03/22 02:09:01;;;;;;;84.50;42.15;;;;;;;3.49;43.61;96347.69;4905555;29;20040;-77
2022/03/22 02:11:27;;;;;;;73.30;34.65;;;;;;;3.47;43.04;96340.13;4905838;29;20052;-76
2022/03/22 02:13:52;;;;;;;71.28;34.13;;;;;;;3.47;42.89;96339.31;4888062;29;20080;-76
2022/03/22 02:16:18;;;;;;;70.75;34.88;;;;;;;3.44;42.77;96340.44;4905263;29;20040;-76
2022/03/22 02:18:44;;;;;;;71.63;34.95;;;;;;;3.42;42.11;96336.41;4903998;29;20036;-76
2022/03/22 02:21:09;;;;;;;74.13;33.53;;;;;;;3.43;42.11;96338.81;4889108;29;20043;-77
2022/03/22 02:23:51;;;;;;;65.00;31.55;;;;;;;3.37;42.26;96334.25;4887189;29;20044;-77
2022/03/22 02:26:19;;;;;;;49.17;23.77;;;;;;;3.29;40.91;96329.06;4907581;29;20099;-75
2022/03/22 02:28:45;;;;;;;56.30;26.20;;;;;;;3.22;41.62;96335.75;4920357;23;20525;-76
2022/03/22 02:31:10;;;;;;;67.57;32.30;;;;;;;3.17;42.61;96330.25;4914873;29;20044;-76
2022/03/22 02:33:40;;;;;;;66.28;27.60;;;;;;;3.15;42.72;96329.59;4913340;29;20391;-76
2022/03/22 02:36:06;;;;;;;54.95;25.63;;;;;;;3.16;42.22;96321.72;4929591;29;20036;-76
2022/03/22 02:38:31;;;;;;;50.67;26.48;;;;;;;3.15;42.40;96319.31;4913261;29;20136;-76
2022/03/22 02:40:56;;;;;;;59.92;26.63;;;;;;;3.15;42.14;96319.31;4913081;29;20037;-76
2022/03/22 02:43:22;;;;;;;70.85;27.05;;;;;;;3.18;42.42;96329.28;4913336;29;20036;-76
2022/03/22 02:45:47;;;;;;;59.88;27.25;;;;;;;3.15;42.36;96335.53;4881870;29;20047;-76
2022/03/22 02:48:13;;;;;;;71.05;31.65;;;;;;;3.09;43.41;96330.16;4914183;29;20040;-76
2022/03/22 02:50:38;;;;;;;64.68;27.95;;;;;;;3.02;43.45;96335.09;4896601;29;20028;-76
2022/03/22 02:53:04;;;;;;;75.38;33.63;;;;;;;2.97;43.59;96332.16;4914346;29;20500;-76
2022/03/22 02:55:29;;;;;;;49.08;25.38;;;;;;;3.03;43.40;96336.72;4912867;29;20039;-77
2022/03/22 02:57:55;;;;;;;79.63;35.53;;;;;;;3.01;43.46;96333.47;4896789;29;20028;-77
2022/03/22 03:00:26;;;;;;;73.72;31.92;;;;;;;2.93;43.89;96347.06;4881802;29;20051;-76
2022/03/22 03:02:52;;;;;;;86.57;44.40;;;;;;;2.88;43.69;96349.25;4897377;29;20047;-76
2022/03/22 03:05:20;;;;;;;90.57;43.92;;;;;;;2.71;44.28;96342.34;4927748;23;20048;-76
2022/03/22 03:07:46;;;;;;;97.00;41.53;;;;;;;2.60;45.35;96350.25;4924125;29;20043;-76
2022/03/22 03:10:12;;;;;;;65.05;30.85;;;;;;;2.65;43.77;96348.06;4910618;29;20056;-76
2022/03/22 03:12:37;;;;;;;67.78;36.63;;;;;;;2.65;43.69;96343.75;4925026;29;20046;-77
2022/03/22 03:15:03;;;;;;;67.20;32.60;;;;;;;2.55;44.42;96345.56;4907246;29;20047;-76
2022/03/22 03:17:29;;;;;;;71.50;27.17;;;;;;;2.42;45.26;96343.31;4897614;29;20036;-77
2022/03/22 03:19:55;;;;;;;61.85;28.92;;;;;;;2.32;44.98;96337.44;4925040;29;20038;-76
2022/03/22 03:22:25;;;;;;;64.85;27.27;;;;;;;2.26;45.60;96332.06;4929769;29;20556;-76
2022/03/22 03:24:51;;;;;;;74.63;24.83;;;;;;;2.15;45.80;96334.84;4913530;29;20071;-77
2022/03/22 03:27:16;;;;;;;61.83;31.30;;;;;;;2.06;46.41;96331.34;4914214;29;20484;-76
2022/03/22 03:29:42;;;;;;;66.40;29.92;;;;;;;2.09;46.78;96333.63;4913636;29;20488;-76
2022/03/22 03:32:07;;;;;;;73.70;32.58;;;;;;;2.08;45.32;96340.53;4881233;29;20508;-76
2022/03/22 03:34:33;;;;;;;118.65;61.15;;;;;;;2.00;46.08;96337.06;4913828;29;20048;-76
2022/03/22 03:36:58;;;;;;;115.68;58.17;;;;;;;1.95;45.48;96339.22;4913632;29;20123;-75
2022/03/22 03:39:24;;;;;;;104.05;45.35;;;;;;;1.98;44.86;96342.34;4913551;29;20036;-77
2022/03/22 03:41:57;;;;;;;86.50;43.53;;;;;;;1.95;44.82;96328.97;4912361;29;20036;-76
2022/03/22 03:47:17;;;;;;;62.38;31.48;;;;;;;1.85;45.21;96338.47;4898895;29;20465;-77
2022/03/22 03:49:47;;;;;;;59.60;31.15;;;;;;;1.85;45.43;96338.47;4911254;29;20042;-77
2022/03/22 03:52:24;;;;;;;68.72;31.92;;;;;;;1.92;44.95;96340.31;4895835;29;20120;-76
2022/03/22 03:54:50;;;;;;;61.83;29.50;;;;;;;2.03;45.22;96344.47;4897124;29;20048;-76
2022/03/22 03:57:16;;;;;;;55.70;28.55;;;;;;;2.06;45.46;96341.63;4896481;29;20266;-76
2022/03/22 03:59:41;;;;;;;49.13;25.27;;;;;;;2.05;45.41;96340.00;4896121;29;20547;-76
2022/03/22 04:02:07;;;;;;;57.53;28.45;;;;;;;2.11;45.32;96339.41;4895501;29;20044;-76
2022/03/22 04:04:35;;;;;;;64.57;32.45;;;;;;;1.99;45.39;96335.44;4896506;29;20071;-76
2022/03/22 04:07:01;;;;;;;85.80;39.88;;;;;;;1.97;46.83;96345.03;4896763;29;20044;-76
2022/03/22 04:09:26;;;;;;;88.18;43.03;;;;;;;1.85;46.17;96341.84;4911003;29;20028;-76
2022/03/22 04:11:52;;;;;;;98.22;45.08;;;;;;;1.81;46.58;96343.06;4895321;29;20036;-76
2022/03/22 04:14:18;;;;;;;87.38;43.63;;;;;;;1.86;46.82;96342.66;4880329;29;20136;-76
2022/03/22 04:16:43;;;;;;;113.55;53.28;;;;;;;1.86;46.68;96340.06;4911840;29;20066;-78
2022/03/22 04:21:36;;;;;;;117.57;60.65;;;;;;;1.80;46.50;96342.25;4957174;23;20051;-76
2022/03/22 04:24:08;;;;;;;172.65;89.80;;;;;;;1.82;46.60;96333.63;4946285;28;20055;-77
2022/03/22 04:26:37;;;;;;;169.90;83.10;;;;;;;1.77;47.03;96337.38;4931866;29;20039;-76
2022/03/22 04:34:32;;;;;;;168.68;80.38;;;;;;;1.88;45.99;96338.19;4917910;29;20062;-77
2022/03/22 04:36:58;;;;;;;212.55;91.38;;;;;;;1.98;46.10;96344.09;4920704;29;20040;-77
2022/03/22 04:39:24;;;;;;;172.88;78.30;;;;;;;1.90;46.76;96342.22;4918889;29;20717;-77
2022/03/22 04:41:51;;;;;;;170.93;79.97;;;;;;;2.01;46.58;96338.69;4932081;29;20039;-77
2022/03/22 04:44:17;;;;;;;229.98;110.10;;;;;;;2.16;46.01;96341.59;4932366;29;20060;-77
2022/03/22 04:46:43;;;;;;;174.48;89.28;;;;;;;2.26;43.72;96343.13;4930471;29;20071;-78
2022/03/22 04:49:08;;;;;;;50.97;27.60;;;;;;;2.23;43.10;96338.28;4915142;29;20063;-77
2022/03/22 04:57:02;;;;;;;82.40;39.53;;;;;;;3.23;42.90;96335.59;4930915;29;20130;-76
2022/03/22 04:59:28;;;;;;;101.00;41.40;;;;;;;3.77;42.28;96336.31;4931247;29;20110;-77
2022/03/22 05:01:53;;;;;;;114.03;57.15;;;;;;;4.51;41.10;96329.69;4917213;29;20094;-78
2022/03/22 05:04:19;;;;;;;150.68;69.10;;;;;;;5.35;38.04;96329.47;4931474;29;20027;-77
2022/03/22 05:06:45;;;;;;;151.57;71.18;;;;;;;6.37;35.34;96335.75;4917676;29;20066;-78
2022/03/22 05:09:11;;;;;;;128.02;64.20;;;;;;;7.38;33.68;96334.81;4933096;29;20048;-79
2022/03/22 05:11:36;;;;;;;60.22;33.90;;;;;;;8.42;31.34;96329.56;4934157;29;20168;-80
2022/03/22 05:14:02;;;;;;;91.82;45.60;;;;;;;9.13;31.61;96321.16;4918640;29;20048;-79
2022/03/22 05:16:29;;;;;;;112.00;52.83;;;;;;;9.90;30.07;96323.75;4950305;23;20068;-77
2022/03/22 05:18:55;;;;;;;103.85;53.63;;;;;;;10.41;29.34;96310.44;4914273;29;20079;-79
2022/03/22 05:21:21;;;;;;;122.72;56.00;;;;;;;11.32;27.72;96311.69;4914997;29;20047;-79
2022/03/22 05:23:47;;;;;;;190.70;101.20;;;;;;;11.59;27.11;96311.72;4914989;29;20118;-82
2022/03/22 05:26:13;;;;;;;160.95;75.72;;;;;;;12.32;26.18;96325.47;4883722;29;20048;-76
2022/03/22 05:28:39;;;;;;;180.15;83.80;;;;;;;12.31;25.60;96305.59;4915472;29;20119;-76
2022/03/22 05:31:05;;;;;;;183.55;88.63;;;;;;;12.31;26.00;96319.44;4898517;29;20032;-75
2022/03/22 05:33:31;;;;;;;152.95;79.15;;;;;;;12.29;25.83;96315.44;4913620;29;20935;-75
2022/03/22 05:35:56;;;;;;;161.35;82.32;;;;;;;12.38;25.74;96310.81;4912585;29;20039;-75
2022/03/22 05:38:25;;;;;;;171.57;82.72;;;;;;;12.52;26.26;96320.16;4914633;29;20032;-76
2022/03/22 05:40:51;;;;;;;156.13;75.00;;;;;;;12.80;28.56;96312.81;4915804;29;20040;-76
2022/03/22 05:43:17;;;;;;;161.98;79.63;;;;;;;13.13;26.08;96312.63;4898452;29;20044;-76
2022/03/22 05:45:48;;;;;;;203.75;84.28;;;;;;;13.38;25.72;96304.06;4882458;29;20044;-75
2022/03/22 05:48:18;;;;;;;146.48;76.80;;;;;;;13.50;25.58;96303.19;4914598;29;20108;-76
2022/03/22 05:50:43;;;;;;;113.30;55.88;;;;;;;13.60;23.89;96313.13;4914376;29;20485;-76
2022/03/22 05:53:10;;;;;;;73.53;36.17;;;;;;;13.64;22.49;96303.84;4897601;29;20071;-76
2022/03/22 05:55:36;;;;;;;44.40;20.75;;;;;;;13.59;21.56;96301.09;4914805;29;20071;-76
2022/03/22 05:58:02;;;;;;;35.10;18.98;;;;;;;13.51;21.28;96299.56;4914235;29;20520;-75
2022/03/22 06:00:28;;;;;;;34.35;16.33;;;;;;;13.46;21.47;96301.19;4913315;29;20048;-79
2022/03/22 06:02:53;;;;;;;36.00;16.98;;;;;;;13.36;21.54;96301.69;4913299;29;20045;-78
2022/03/22 06:05:18;;;;;;;32.13;18.52;;;;;;;13.27;22.48;96296.91;4916085;29;20031;-79
2022/03/22 06:07:44;;;;;;;35.35;18.15;;;;;;;13.31;22.56;96298.06;4924061;29;20071;-78
2022/03/22 06:10:12;;;;;;;34.03;18.38;;;;;;;13.33;22.75;96306.50;4917880;29;20044;-78
2022/03/22 06:12:45;;;;;;;40.95;15.23;;;;;;;13.23;22.51;96293.94;4917434;29;20066;-81
2022/03/22 06:15:18;;;;;;;23.73;13.27;;;;;;;13.23;23.06;96300.97;4927413;29;20044;-78
2022/03/22 06:17:47;;;;;;;23.52;14.48;;;;;;;13.16;23.87;96296.53;4912458;29;20073;-78
2022/03/22 06:20:14;;;;;;;27.95;13.98;;;;;;;13.15;22.07;96299.38;4891223;29;20048;-78
2022/03/22 06:22:39;;;;;;;30.63;17.60;;;;;;;13.23;21.71;96290.50;4903287;29;20040;-78
2022/03/22 06:25:05;;;;;;;40.33;17.35;;;;;;;13.31;21.84;96293.66;4915062;29;20115;-78
2022/03/22 06:27:35;;;;;;;27.67;13.52;;;;;;;13.44;21.99;96298.00;4915515;29;20092;-79
2022/03/22 06:30:05;;;;;;;32.10;14.63;;;;;;;13.57;21.67;96292.66;4914750;29;20044;-78
2022/03/22 06:32:30;;;;;;;18.40;11.60;;;;;;;13.60;21.07;96289.63;4898074;29;20127;-79
2022/03/22 06:34:56;;;;;;;20.70;13.45;;;;;;;13.66;20.92;96291.34;4882895;29;20131;-78
2022/03/22 06:37:21;;;;;;;35.70;16.13;;;;;;;13.76;20.20;96303.94;4914721;29;20033;-81
2022/03/22 06:39:47;;;;;;;19.75;11.52;;;;;;;13.70;21.50;96287.31;4916475;29;20048;-78
2022/03/22 06:42:12;;;;;;;15.20;10.70;;;;;;;13.76;20.82;96291.69;4916423;29;20051;-78
2022/03/22 06:44:40;;;;;;;16.38;11.20;;;;;;;13.85;21.28;96296.66;4916316;29;20072;-78
2022/03/22 06:47:05;;;;;;;16.50;11.45;;;;;;;14.01;21.39;96289.03;4919816;29;20040;-79
2022/03/22 06:49:31;;;;;;;24.42;12.18;;;;;;;14.22;21.02;96290.44;4917270;29;20033;-78
2022/03/22 06:51:57;;;;;;;25.90;14.10;;;;;;;14.34;20.47;96293.13;4903110;29;20036;-78
2022/03/22 06:54:23;;;;;;;20.10;11.60;;;;;;;14.50;20.28;96287.31;4906612;29;20040;-78
2022/03/22 06:56:48;;;;;;;30.60;12.77;;;;;;;14.57;20.94;96295.09;4910297;29;20028;-78
2022/03/22 06:59:14;;;;;;;23.30;11.27;;;;;;;14.71;20.47;96296.53;4883941;29;20028;-78
2022/03/22 07:01:39;;;;;;;16.55;11.65;;;;;;;14.74;20.49;96279.56;4899015;29;20047;-78
2022/03/22 07:04:05;;;;;;;23.00;11.70;;;;;;;14.72;19.65;96290.25;4914432;29;20110;-78
2022/03/22 07:06:32;;;;;;;24.35;12.68;;;;;;;14.75;20.18;96289.81;4890152;29;20183;-78
2022/03/22 07:08:57;;;;;;;30.52;13.95;;;;;;;14.82;20.65;96284.50;4918853;29;20044;-78
2022/03/22 07:14:07;;;;;;;23.88;11.70;;;;;;;14.69;19.33;96281.03;4901164;29;20522;-78
2022/03/22 07:16:32;;;;;;;18.30;12.00;;;;;;;14.59;20.08;96277.34;4918870;29;20044;-78
2022/03/22 07:18:58;;;;;;;16.35;11.02;;;;;;;14.79;19.50;96280.50;4914689;29;20523;-78
2022/03/22 07:21:23;;;;;;;25.52;13.07;;;;;;;14.97;19.34;96283.09;4913545;29;20714;-78
2022/03/22 07:23:49;;;;;;;15.32;10.90;;;;;;;15.20;19.41;96281.53;4897843;29;20032;-78
2022/03/22 07:26:16;;;;;;;17.90;10.23;;;;;;;15.38;19.12;96278.84;4913932;29;20055;-78
2022/03/22 07:28:42;;;;;;;19.02;11.43;;;;;;;15.43;18.97;96276.34;4885955;29;20051;-78
2022/03/22 07:31:07;;;;;;;22.70;12.13;;;;;;;15.41;19.04;96273.16;4932226;29;20064;-79
2022/03/22 07:33:33;;;;;;;20.20;11.15;;;;;;;15.08;18.90;96270.22;4921652;29;20048;-78
2022/03/22 07:35:58;;;;;;;20.05;11.10;;;;;;;14.63;19.17;96268.81;4903216;29;20040;-78
2022/03/22 07:38:24;;;;;;;20.10;11.73;;;;;;;14.31;20.87;96272.59;4898812;29;20077;-78
2022/03/22 07:40:49;;;;;;;17.83;11.25;;;;;;;13.66;20.77;96265.22;4916446;29;20079;-78
2022/03/22 07:43:15;;;;;;;21.00;10.93;;;;;;;13.29;22.30;96266.16;4904359;29;20083;-79
2022/03/22 07:45:41;;;;;;;32.38;13.77;;;;;;;13.04;23.08;96253.84;4903279;29;20029;-79
2022/03/22 07:48:06;;;;;;;25.63;14.02;;;;;;;12.89;22.32;96258.56;4897537;29;20040;-79
2022/03/22 07:53:16;;;;;;;26.02;14.55;;;;;;;12.55;23.14;96257.94;4914572;29;20062;-77
2022/03/22 07:55:42;;;;;;;28.75;15.10;;;;;;;12.29;24.63;96258.06;4912478;29;20040;-79
2022/03/22 07:58:08;;;;;;;20.15;13.35;;;;;;;12.15;23.44;96262.50;4899327;29;20044;-79
2022/03/22 08:00:35;;;;;;;22.00;12.43;;;;;;;12.05;23.48;96266.56;4899757;29;20115;-78
2022/03/22 08:03:03;;;;;;;21.73;12.55;;;;;;;11.88;24.03;96261.00;4900380;29;20043;-78
2022/03/22 08:05:28;;;;;;;19.25;12.00;;;;;;;11.72;24.25;96263.00;4906680;29;20043;-78
2022/03/22 08:07:54;;;;;;;26.52;13.35;;;;;;;11.61;24.58;96265.41;4936187;29;20020;-78
2022/03/22 08:10:20;;;;;;;39.90;19.15;;;;;;;11.52;24.87;96261.41;4896401;29;20020;-78
2022/03/22 08:12:46;;;;;;;27.73;16.15;;;;;;;11.39;24.79;96265.63;4887187;29;20040;-78
2022/03/22 08:15:13;;;;;;;26.30;14.05;;;;;;;11.30;25.40;96261.63;4918103;29;20040;-78
2022/03/22 08:17:41;;;;;;;25.02;12.35;;;;;;;11.25;25.12;96269.25;4914166;29;20067;-78
2022/03/22 08:20:08;;;;;;;20.27;11.55;;;;;;;11.18;24.80;96260.59;4894648;29;20067;-78
2022/03/22 08:22:55;;;;;;;24.58;13.75;;;;;;;11.11;26.08;96265.03;4906644;29;20040;-78
2022/03/22 08:25:25;;;;;;;37.45;18.45;;;;;;;11.00;26.67;96263.00;4916855;29;20044;-78
2022/03/22 08:27:51;;;;;;;28.48;14.02;;;;;;;10.87;25.93;96261.16;4899425;29;20491;-78
2022/03/22 08:30:21;;;;;;;31.13;17.48;;;;;;;10.82;25.95;96260.97;4884220;29;20072;-78
2022/03/22 08:32:51;;;;;;;21.73;13.82;;;;;;;10.73;26.18;96268.16;4902292;29;20496;-78
2022/03/22 08:35:17;;;;;;;18.35;12.13;;;;;;;10.64;26.37;96266.75;4919494;29;20048;-79
2022/03/22 08:37:43;;;;;;;29.58;12.95;;;;;;;10.60;26.45;96268.13;4917783;29;20044;-79
2022/03/22 08:40:10;;;;;;;22.40;12.20;;;;;;;10.58;26.91;96258.94;4915814;29;20036;-78
2022/03/22 08:42:37;;;;;;;25.02;12.85;;;;;;;10.53;27.18;96267.28;4916597;29;20036;-78
2022/03/22 08:45:06;;;;;;;25.50;13.50;;;;;;;10.52;27.03;96257.91;4899601;29;20040;-79
2022/03/22 08:47:34;;;;;;;24.20;12.07;;;;;;;10.51;27.29;96258.91;4899979;29;20074;-78
2022/03/22 08:50:00;;;;;;;20.83;12.35;;;;;;;10.59;27.37;96261.34;4900040;29;20055;-78
2022/03/22 08:52:26;;;;;;;23.40;11.75;;;;;;;10.66;27.11;96256.13;4884120;29;20044;-78
2022/03/22 08:54:51;;;;;;;22.30;12.27;;;;;;;10.71;27.38;96253.72;4898590;29;20040;-79
2022/03/22 08:57:18;;;;;;;25.40;12.65;;;;;;;10.64;27.91;96252.94;4908788;29;20036;-78
2022/03/22 08:59:43;;;;;;;30.67;14.05;;;;;;;10.65;28.16;96255.34;4897833;29;20028;-78
2022/03/22 09:02:09;;;;;;;27.30;14.40;;;;;;;10.58;28.42;96249.31;4921162;29;20043;-78
2022/03/22 09:07:18;;;;;;;24.65;12.75;;;;;;;10.43;29.32;96236.47;4921054;29;20388;-78
2022/03/22 09:09:44;;;;;;;21.13;12.88;;;;;;;10.50;28.66;96229.47;4915419;29;20036;-78
2022/03/22 09:12:11;;;;;;;22.95;12.48;;;;;;;10.52;29.55;96229.28;4890758;29;20052;-78
2022/03/22 09:14:37;;;;;;;32.03;12.65;;;;;;;10.24;30.40;96226.78;4916976;29;20529;-78
2022/03/22 09:17:05;;;;;;;28.70;14.13;;;;;;;10.21;30.40;96227.97;4908073;29;20092;-78
2022/03/22 09:19:30;;;;;;;24.83;13.32;;;;;;;10.36;30.58;96224.44;4883082;29;20560;-78
2022/03/22 09:21:56;;;;;;;24.52;13.82;;;;;;;10.39;31.00;96224.84;4914576;29;20035;-78
2022/03/22 09:24:21;;;;;;;29.95;13.25;;;;;;;10.53;30.14;96233.47;4891818;29;20024;-78
2022/03/22 09:26:47;;;;;;;23.25;13.82;;;;;;;10.62;30.36;96219.31;4889867;29;20032;-78
2022/03/22 09:29:13;;;;;;;19.65;12.50;;;;;;;10.64;30.11;96227.72;4913993;29;20024;-78
2022/03/22 09:31:40;;;;;;;24.60;12.68;;;;;;;10.78;30.06;96208.53;4915084;29;20039;-78
2022/03/22 09:34:06;;;;;;;26.65;12.93;;;;;;;11.04;29.92;96206.94;4899797;29;20036;-78
2022/03/22 09:36:32;;;;;;;26.38;13.88;;;;;;;11.19;29.30;96199.72;4899738;29;20028;-78
2022/03/22 09:38:58;;;;;;;26.67;13.43;;;;;;;11.26;29.59;96205.75;4898953;29;20037;-78
2022/03/22 09:41:24;;;;;;;32.20;12.88;;;;;;;11.31;29.63;96197.31;4916649;29;20048;-78
2022/03/22 09:43:49;;;;;;;23.00;11.90;;;;;;;11.08;31.24;96201.16;4884154;29;20115;-78
2022/03/22 09:46:19;;;;;;;20.98;13.20;;;;;;;11.10;31.18;96203.56;4915642;29;20039;-78
2022/03/22 09:48:45;;;;;;;22.92;9.80;;;;;;;10.88;33.21;96202.13;4914090;29;20044;-78
2022/03/22 09:53:56;;;;;;;13.32;7.97;;;;;;;10.40;35.34;96199.63;4884811;29;20127;-78
2022/03/22 09:56:25;;;;;;;17.58;8.00;;;;;;;10.08;35.91;96211.50;4897774;29;20044;-78
2022/03/22 09:58:52;;;;;;;12.45;7.18;;;;;;;10.15;36.13;96202.75;4876714;29;20032;-78
2022/03/22 10:01:18;;;;;;;18.73;7.80;;;;;;;10.21;35.36;96196.78;4873525;29;20393;-79
2022/03/22 10:03:57;;;;;;;12.45;8.07;;;;;;;10.39;35.63;96190.25;4912597;29;20036;-78
2022/03/22 10:06:23;;;;;;;22.88;7.53;;;;;;;10.42;35.54;96182.88;4902415;29;20036;-78
2022/03/22 10:08:50;;;;;;;18.83;8.30;;;;;;;10.29;35.18;96187.22;4915574;29;20032;-78
2022/03/22 10:11:15;;;;;;;17.88;8.15;;;;;;;10.33;35.92;96180.63;4885170;29;20036;-79
2022/03/22 10:13:54;;;;;;;20.35;8.48;;;;;;;10.23;36.01;96166.19;4904069;29;20440;-78
2022/03/22 10:16:19;;;;;;;18.58;8.75;;;;;;;10.14;35.91;96161.34;5139187;23;20075;-79
2022/03/22 10:18:45;;;;;;;16.13;8.82;;;;;;;9.87;35.80;96174.25;4917572;29;20067;-76
2022/03/22 10:21:10;;;;;;;20.10;8.40;;;;;;;9.68;36.41;96158.56;4911534;29;20559;-76
2022/03/22 10:23:50;;;;;;;15.57;7.95;;;;;;;9.59;36.68;96163.91;4912730;29;20107;-77
2022/03/22 10:26:16;;;;;;;16.73;8.52;;;;;;;9.47;37.35;96152.50;4900524;29;20095;-77
2022/03/22 10:28:52;;;;;;;15.80;9.55;;;;;;;9.31;37.60;96155.38;4918550;29;20032;-77
2022/03/22 10:31:17;;;;;;;17.17;8.88;;;;;;;9.37;37.43;96146.03;4898087;29;20046;-76
2022/03/22 10:33:52;;;;;;;15.00;9.10;;;;;;;9.49;37.11;96134.91;4913138;29;20043;-77
2022/03/22 10:36:19;;;;;;;18.77;10.35;;;;;;;9.73;37.05;96138.00;4897436;29;20036;-76
2022/03/22 10:39:02;;;;;;;29.17;12.90;;;;;;;9.94;36.72;96135.31;4896940;29;20461;-76
2022/03/22 10:41:29;;;;;;;18.40;9.93;;;;;;;10.12;36.34;96127.75;4882418;29;20444;-76
2022/03/22 10:44:05;;;;;;;30.92;10.60;;;;;;;10.11;36.39;96136.56;4898476;29;20518;-76
2022/03/22 10:46:31;;;;;;;15.23;9.30;;;;;;;10.00;36.57;96131.91;4914001;29;20032;-77
2022/03/22 10:49:05;;;;;;;14.80;9.18;;;;;;;10.03;36.38;96115.94;4912755;29;20046;-76
2022/03/22 10:51:42;;;;;;;15.93;9.20;;;;;;;10.04;35.60;96122.72;4897174;29;20452;-76
2022/03/22 10:54:12;;;;;;;15.77;8.77;;;;;;;10.02;36.49;96114.34;4889310;29;20564;-76
2022/03/22 10:56:39;;;;;;;19.88;9.52;;;;;;;10.00;36.60;96110.34;4897745;29;20036;-76
2022/03/22 10:59:04;;;;;;;20.80;8.93;;;;;;;9.96;35.58;96109.13;4913525;29;20032;-80
2022/03/22 11:01:30;;;;;;;16.23;9.80;;;;;;;9.93;36.10;96102.53;4900611;29;20047;-78
2022/03/22 11:03:56;;;;;;;18.33;10.05;;;;;;;9.97;35.99;96108.94;4921422;29;20055;-78
2022/03/22 11:06:22;;;;;;;13.90;8.40;;;;;;;9.94;35.56;96096.34;4927410;29;20032;-79
2022/03/22 11:08:48;;;;;;;20.42;9.02;;;;;;;10.02;34.48;96092.75;4889564;29;20039;-78
2022/03/22 11:11:14;;;;;;;22.77;8.60;;;;;;;10.13;34.67;96084.38;4921888;29;20040;-79
2022/03/22 11:13:40;;;;;;;21.40;8.85;;;;;;;10.10;34.02;96090.78;4921293;29;20040;-79
2022/03/22 11:16:07;;;;;;;25.83;8.93;;;;;;;10.25;34.49;96077.63;4930480;29;20032;-79
2022/03/22 11:18:32;;;;;;;19.23;7.70;;;;;;;10.38;33.78;96076.81;4919926;29;20101;-79
2022/03/22 11:21:02;;;;;;;16.88;9.10;;;;;;;10.38;33.75;96056.03;4904513;29;20069;-79
2022/03/22 11:23:30;;;;;;;15.95;8.77;;;;;;;10.50;34.12;96070.03;4919501;29;20044;-79
2022/03/22 11:26:12;;;;;;;14.63;7.80;;;;;;;10.61;32.85;96058.25;4897380;29;20024;-79
2022/03/22 11:28:39;;;;;;;13.75;7.55;;;;;;;10.54;33.44;96063.44;4903722;29;20080;-79
2022/03/22 11:31:05;;;;;;;17.13;9.35;;;;;;;10.57;33.24;96054.41;4904558;29;20043;-79
2022/03/22 11:36:19;;;;;;;15.10;8.60;;;;;;;10.68;33.25;96041.63;4920549;29;20031;-79
2022/03/22 11:38:45;;;;;;;12.52;8.05;;;;;;;10.91;33.09;96035.19;4920290;29;20035;-79
2022/03/22 11:44:21;;;;;;;10.82;7.15;;;;;;;11.19;32.37;96037.50;4916911;29;20095;-79
2022/03/22 11:46:48;;;;;;;15.75;8.80;;;;;;;11.48;31.60;96025.78;4897298;29;20035;-80
2022/03/22 11:49:22;;;;;;;14.93;8.23;;;;;;;11.20;32.26;96033.91;4889031;29;20063;-80
2022/03/22 11:51:53;;;;;;;15.77;8.13;;;;;;;11.10;32.23;96029.13;4925996;29;20028;-79
2022/03/22 11:54:19;;;;;;;18.15;8.35;;;;;;;11.02;31.63;96024.94;4916270;29;20048;-79
2022/03/22 11:56:50;;;;;;;12.77;8.32;;;;;;;11.08;31.18;96018.13;4930492;29;20043;-80
2022/03/22 11:59:16;;;;;;;18.42;7.18;;;;;;;11.24;29.98;96020.28;4900309;29;20042;-79